Time;durP1;ratioP1;P1;durP2;ratioP2;P2;SDS_P1;SDS_P2;PMS_P1;PMS_P2;Temp;Humidity;BMP_temperature;BMP_pressure;BME280_temperature;BME280_humidity;BME280_pressure;Samples;Min_cycle;Max_cycle;Signal;HPM_P1;HPM_P2
2023/05/01 00:01:20;;;;;;;5.00;3.63;;;6.80;1.00;7.60;94023.00;;;;7397608;19;20600;-75
2023/05/01 00:03:55;;;;;;;4.23;3.60;;;6.80;1.00;7.70;94026.00;;;;7397457;19;20149;-72
2023/05/01 00:06:23;;;;;;;4.87;3.73;;;6.80;1.00;7.60;93992.00;;;;7399191;19;20153;-72
2023/05/01 00:08:57;;;;;;;4.53;3.60;;;6.80;1.00;7.50;94024.00;;;;7398144;19;20148;-72
2023/05/01 00:11:24;;;;;;;4.83;3.97;;;6.70;1.00;7.50;94016.00;;;;7397331;19;20610;-74
2023/05/01 00:13:53;;;;;;;4.87;3.80;;;6.70;1.00;7.50;94006.00;;;;7398674;19;20469;-74
2023/05/01 00:16:27;;;;;;;4.17;3.77;;;6.70;1.00;7.50;94002.00;;;;7397685;19;20139;-74
2023/05/01 00:18:54;;;;;;;4.80;4.20;;;6.70;1.00;7.40;93999.00;;;;7398563;19;20488;-74
2023/05/01 00:21:28;;;;;;;4.97;4.07;;;6.70;1.00;7.40;94002.00;;;;7397539;19;20148;-74
2023/05/01 00:23:55;;;;;;;4.87;4.10;;;6.70;1.00;7.40;93987.00;;;;7398375;19;20121;-74
2023/05/01 00:26:30;;;;;;;5.97;4.67;;;6.60;1.00;7.50;94000.00;;;;7398147;19;20139;-74
2023/05/01 00:28:57;;;;;;;7.93;4.67;;;6.60;1.00;7.50;93994.00;;;;7398731;19;20591;-74
2023/05/01 00:31:32;;;;;;;5.77;4.37;;;6.60;1.00;7.60;93975.00;;;;7397101;19;20153;-74
2023/05/01 00:34:06;;;;;;;5.23;4.43;;;6.70;1.00;7.50;93939.00;;;;7386179;19;20154;-74
2023/05/01 00:36:33;;;;;;;4.53;3.83;;;6.70;1.00;7.70;93985.00;;;;7391701;19;20165;-74
2023/05/01 00:39:07;;;;;;;4.47;4.07;;;6.70;1.00;7.60;93975.00;;;;7396945;19;20156;-74
2023/05/01 00:41:35;;;;;;;5.67;4.37;;;6.70;1.00;7.60;93967.00;;;;7403612;19;20141;-72
2023/05/01 00:44:12;;;;;;;5.03;4.00;;;6.70;1.00;7.50;93975.00;;;;7410990;19;20132;-74
2023/05/01 00:46:39;;;;;;;3.90;3.50;;;6.70;1.00;7.60;93943.00;;;;7411852;19;20131;-74
2023/05/01 00:49:06;;;;;;;6.13;3.83;;;6.80;1.00;7.50;93978.00;;;;7410768;19;20165;-74
2023/05/01 00:51:49;;;;;;;3.50;3.20;;;6.90;1.00;7.60;93983.00;;;;7411056;19;20139;-74
2023/05/01 00:54:19;;;;;;;5.47;3.97;;;6.90;1.00;7.60;93973.00;;;;7411899;19;20132;-74
2023/05/01 00:56:54;;;;;;;5.50;3.67;;;7.00;1.00;7.60;93965.00;;;;7409126;19;20168;-74
2023/05/01 00:59:21;;;;;;;4.10;3.33;;;7.00;1.00;7.60;93967.00;;;;7412280;19;20133;-74
2023/05/01 01:01:55;;;;;;;4.10;3.40;;;7.10;1.00;7.70;93938.00;;;;7410968;19;20491;-74
2023/05/01 01:04:31;;;;;;;3.97;3.57;;;7.10;1.00;7.80;93950.00;;;;7411601;19;20132;-74
2023/05/01 01:07:32;;;;;;;5.07;3.37;;;7.10;1.00;7.80;93956.00;;;;7411938;19;20174;-74
2023/05/01 01:10:29;;;;;;;4.73;3.70;;;7.10;1.00;7.80;93921.00;;;;7411124;19;20142;-74
2023/05/01 01:13:24;;;;;;;5.03;3.63;;;7.10;1.00;7.70;93954.00;;;;7409126;19;20474;-74
2023/05/01 01:16:32;;;;;;;6.93;3.60;;;7.10;1.00;7.70;93953.00;;;;7411513;19;20156;-72
2023/05/01 01:19:25;;;;;;;5.17;3.73;;;7.10;1.00;7.80;93942.00;;;;7409833;19;20132;-75
2023/05/01 01:22:10;;;;;;;5.43;3.60;;;7.10;1.00;7.80;93943.00;;;;7410691;19;20152;-74
2023/05/01 01:25:11;;;;;;;4.93;4.10;;;7.00;1.00;7.80;93907.00;;;;7410102;19;20144;-74
2023/05/01 01:28:23;;;;;;;5.50;3.57;;;7.10;1.00;7.70;93937.00;;;;7410053;19;20607;-74
2023/05/01 01:31:35;;;;;;;4.17;3.73;;;7.10;1.00;7.70;93931.00;;;;7410666;19;20474;-74
2023/05/01 01:34:26;;;;;;;3.93;3.47;;;7.10;1.00;7.70;93934.00;;;;7406239;19;20153;-74
2023/05/01 01:37:10;;;;;;;6.90;3.20;;;7.10;1.00;7.80;93927.00;;;;7410544;19;20157;-74
2023/05/01 01:39:54;;;;;;;4.03;3.50;;;7.10;1.00;7.80;93927.00;;;;7409894;19;20160;-74
2023/05/01 01:42:39;;;;;;;6.10;4.50;;;7.20;1.00;7.80;93930.00;;;;7409636;19;20164;-75
2023/05/01 01:45:31;;;;;;;4.13;3.60;;;7.10;1.00;7.80;93924.00;;;;7410895;19;20117;-74
2023/05/01 01:48:01;;;;;;;3.77;3.40;;;7.20;1.00;7.80;93933.00;;;;7410239;19;20749;-74
2023/05/01 01:50:40;;;;;;;4.77;4.00;;;7.20;1.00;7.80;93924.00;;;;7409086;19;20635;-74
2023/05/01 01:53:14;;;;;;;6.10;3.80;;;7.20;1.00;7.80;93937.00;;;;7403638;19;20473;-75
2023/05/01 01:55:49;;;;;;;4.90;3.77;;;7.20;1.00;7.70;93891.00;;;;7400888;19;20212;-74
2023/05/01 01:58:23;;;;;;;4.73;3.67;;;7.20;1.00;7.70;93926.00;;;;7399962;19;20152;-74
2023/05/01 02:00:58;;;;;;;5.77;3.27;;;7.20;1.00;7.70;93914.00;;;;7401475;19;20140;-75
2023/05/01 02:03:33;;;;;;;6.00;3.97;;;7.20;1.00;7.70;93920.00;;;;7400054;19;20176;-72
2023/05/01 02:06:03;;;;;;;4.23;3.67;;;7.20;1.00;7.70;93907.00;;;;7402372;19;20588;-72
2023/05/01 02:08:42;;;;;;;3.80;3.30;;;7.20;1.00;7.70;93915.00;;;;7403690;19;20613;-72
2023/05/01 02:11:14;;;;;;;4.97;3.80;;;7.10;1.00;7.80;93904.00;;;;7401073;19;20121;-72
2023/05/01 02:13:58;;;;;;;4.13;3.63;;;7.10;1.00;7.70;93906.00;;;;7403306;19;20464;-74
2023/05/01 02:16:35;;;;;;;3.97;3.57;;;7.20;1.00;7.80;93911.00;;;;7401173;19;20623;-74
2023/05/01 02:19:04;;;;;;;5.23;3.83;;;7.20;1.00;7.80;93903.00;;;;7401591;19;20125;-75
2023/05/01 02:21:38;;;;;;;4.27;3.70;;;7.10;1.00;7.80;93905.00;;;;7401970;19;20130;-75
2023/05/01 02:24:13;;;;;;;4.53;3.63;;;7.10;1.00;7.70;93906.00;;;;7403015;19;20124;-72
2023/05/01 02:26:58;;;;;;;4.23;3.60;;;7.10;1.00;7.70;93907.00;;;;7401867;19;20146;-73
2023/05/01 02:29:33;;;;;;;6.97;3.57;;;7.10;1.00;7.70;93903.00;;;;7401018;19;20212;-72
2023/05/01 02:32:00;;;;;;;5.97;3.80;;;7.10;1.00;7.70;93887.00;;;;7402204;19;20136;-72
2023/05/01 02:34:27;;;;;;;5.50;4.00;;;7.10;1.00;7.70;93881.00;;;;7401239;19;20125;-73
2023/05/01 02:37:05;;;;;;;5.17;3.90;;;7.20;1.00;7.80;93896.00;;;;7401185;19;20129;-73
2023/05/01 02:39:34;;;;;;;7.23;4.40;;;7.20;1.00;7.80;93871.00;;;;7401268;19;20197;-72
2023/05/01 02:42:11;;;;;;;5.43;3.63;;;7.20;1.00;7.90;93838.00;;;;7400567;19;20136;-72
2023/05/01 02:44:54;;;;;;;4.67;3.67;;;7.20;1.00;7.80;93895.00;;;;7401822;19;20576;-73
2023/05/01 02:47:23;;;;;;;4.27;3.63;;;7.20;1.00;7.90;93893.00;;;;7400312;19;20151;-73
2023/05/01 02:50:07;;;;;;;4.10;3.43;;;7.20;1.00;7.80;93885.00;;;;7398194;19;20160;-72
2023/05/01 02:52:43;;;;;;;6.70;4.10;;;7.20;1.00;7.70;93891.00;;;;7400282;19;20500;-72
2023/05/01 02:55:17;;;;;;;3.83;3.40;;;7.20;1.00;7.80;93884.00;;;;7399461;19;20151;-72
2023/05/01 02:57:44;;;;;;;5.27;3.97;;;7.20;1.00;7.80;93849.00;;;;7399844;19;20152;-73
2023/05/01 03:00:18;;;;;;;5.77;4.07;;;7.20;1.00;7.90;93880.00;;;;7399076;19;20145;-73
2023/05/01 03:02:46;;;;;;;3.73;3.40;;;7.20;1.00;7.90;93880.00;;;;7399057;19;20647;-73
2023/05/01 03:05:20;;;;;;;4.67;4.13;;;7.30;1.00;7.90;93869.00;;;;7399712;19;20124;-73
2023/05/01 03:07:47;;;;;;;7.80;4.20;;;7.30;1.00;8.00;93843.00;;;;7399681;19;20145;-73
2023/05/01 03:10:21;;;;;;;4.10;3.70;;;7.30;1.00;7.90;93869.00;;;;7400356;19;20154;-73
2023/05/01 03:12:48;;;;;;;3.90;3.50;;;7.30;1.00;7.90;93875.00;;;;7399562;19;20201;-73
2023/05/01 03:15:15;;;;;;;4.73;3.80;;;7.30;1.00;7.90;93865.00;;;;7400337;19;20125;-72
2023/05/01 03:17:49;;;;;;;7.85;4.03;;;7.30;1.00;7.90;93858.00;;;;7399380;19;20113;-73
2023/05/01 03:20:16;;;;;;;4.27;3.77;;;7.30;1.00;7.80;93857.00;;;;7399476;19;20148;-72
2023/05/01 03:22:51;;;;;;;6.30;3.77;;;7.30;1.00;7.90;93849.00;;;;7399196;19;20128;-72
2023/05/01 03:25:18;;;;;;;5.40;3.63;;;7.30;1.00;7.90;93861.00;;;;7400203;19;20601;-73
2023/05/01 03:27:45;;;;;;;4.37;3.97;;;7.30;1.00;7.90;93842.00;;;;7399085;19;20129;-73
2023/05/01 03:30:21;;;;;;;4.50;4.07;;;7.30;1.00;8.00;93864.00;;;;7401030;19;20200;-73
2023/05/01 03:32:48;;;;;;;5.37;3.50;;;7.30;1.00;8.00;93856.00;;;;7400271;19;20136;-73
2023/05/01 03:35:22;;;;;;;4.77;3.70;;;7.30;1.00;8.00;93849.00;;;;7393161;19;20141;-73
2023/05/01 03:37:49;;;;;;;7.27;4.37;;;7.30;1.00;8.00;93854.00;;;;7398845;19;20133;-73
2023/05/01 03:40:23;;;;;;;6.53;4.40;;;7.30;1.00;8.10;93852.00;;;;7397710;19;20619;-73
2023/05/01 03:42:50;;;;;;;5.10;4.00;;;7.40;1.00;8.10;93848.00;;;;7398551;19;20620;-73
2023/05/01 03:45:24;;;;;;;4.72;4.22;;;7.40;1.00;8.10;93845.00;;;;7396872;19;20177;-73
2023/05/01 03:47:52;;;;;;;3.90;3.50;;;7.40;1.00;8.10;93850.00;;;;7397188;19;20162;-73
2023/05/01 03:50:32;;;;;;;4.43;3.83;;;7.50;1.00;8.00;93853.00;;;;7395299;19;20164;-73
2023/05/01 03:52:59;;;;;;;5.60;3.70;;;7.40;1.00;8.10;93844.00;;;;7398997;19;20599;-72
2023/05/01 03:55:35;;;;;;;9.30;3.70;;;7.50;1.00;8.00;93823.00;;;;7397208;19;20627;-73
2023/05/01 03:58:12;;;;;;;8.13;3.93;;;7.50;1.00;8.10;93813.00;;;;7398554;19;20509;-73
2023/05/01 04:00:46;;;;;;;4.47;3.70;;;7.50;1.00;8.10;93813.00;;;;7396545;19;20148;-72
2023/05/01 04:03:13;;;;;;;5.57;3.47;;;7.50;1.00;8.20;93799.00;;;;7396497;19;20136;-73
2023/05/01 04:05:47;;;;;;;4.87;3.67;;;7.40;1.00;8.20;93837.00;;;;7395840;19;20125;-73
2023/05/01 04:08:21;;;;;;;5.47;4.00;;;7.50;1.00;8.10;93836.00;;;;7398960;19;20140;-73
2023/05/01 04:10:48;;;;;;;4.40;3.67;;;7.40;1.00;8.10;93840.00;;;;7397530;19;20208;-73
2023/05/01 04:13:22;;;;;;;6.15;4.28;;;7.40;1.00;8.10;93823.00;;;;7398175;19;20125;-73
2023/05/01 04:15:49;;;;;;;7.00;4.57;;;7.40;1.00;8.10;93827.00;;;;7395086;19;20140;-73
2023/05/01 04:18:23;;;;;;;6.35;4.07;;;7.50;1.00;8.00;93826.00;;;;7397944;19;20141;-73
2023/05/01 04:20:57;;;;;;;6.27;3.77;;;7.40;1.00;8.00;93840.00;;;;7396994;19;20584;-73
2023/05/01 04:23:31;;;;;;;6.90;3.80;;;7.50;1.00;8.00;93829.00;;;;7396030;19;20152;-73
2023/05/01 04:25:58;;;;;;;5.27;4.17;;;7.50;1.00;8.00;93845.00;;;;7398285;19;20133;-77
2023/05/01 04:28:36;;;;;;;5.53;3.90;;;7.50;1.00;8.00;93803.00;;;;7402316;19;20132;-77
2023/05/01 04:31:03;;;;;;;6.78;4.03;;;7.50;1.00;8.20;93840.00;;;;7403711;19;20604;-77
2023/05/01 04:33:37;;;;;;;5.55;4.05;;;7.50;1.00;8.40;93837.00;;;;7403603;19;20588;-77
2023/05/01 04:36:04;;;;;;;4.22;3.83;;;7.50;99.90;8.40;93835.00;;;;7399856;19;20587;-77
2023/05/01 04:38:38;;;;;;;5.13;3.80;;;7.60;99.90;8.50;93805.00;;;;7399610;19;20603;-77
2023/05/01 04:41:11;;;;;;;4.13;3.73;;;7.70;99.90;8.50;93840.00;;;;7366261;19;20500;-78
2023/05/01 04:43:38;;;;;;;5.05;3.92;;;7.70;99.90;8.60;93834.00;;;;7383279;19;20180;-77
2023/05/01 04:46:12;;;;;;;4.35;3.80;;;7.70;99.90;8.70;93821.00;;;;7383276;19;20144;-78
2023/05/01 04:49:12;;;;;;;6.75;3.70;;;7.80;99.90;8.90;93835.00;;;;7382658;19;20215;-76
2023/05/01 04:51:46;;;;;;;5.22;4.03;;;7.90;99.90;8.90;93834.00;;;;7372697;19;21204;-77
2023/05/01 04:54:21;;;;;;;5.33;3.50;;;7.90;99.90;8.80;93818.00;;;;7375381;19;20200;-76
2023/05/01 04:56:56;;;;;;;7.65;3.38;;;8.00;99.90;8.80;93829.00;;;;7377475;19;20136;-75
2023/05/01 04:59:24;;;;;;;4.40;3.20;;;8.10;99.90;8.90;93832.00;;;;7376911;19;20129;-77
2023/05/01 05:01:58;;;;;;;4.15;3.75;;;8.10;99.90;8.90;93821.00;;;;7375084;19;20175;-76
2023/05/01 05:04:35;;;;;;;9.50;3.53;;;8.10;99.90;9.00;93827.00;;;;7376480;19;20140;-75
2023/05/01 05:07:09;;;;;;;5.03;3.92;;;8.20;99.90;9.20;93844.00;;;;7376095;19;20136;-77
2023/05/01 05:09:36;;;;;;;4.45;3.58;;;8.30;99.90;9.00;93835.00;;;;7379177;19;20153;-78
2023/05/01 05:12:10;;;;;;;5.50;4.70;;;8.30;99.90;9.20;93835.00;;;;7375455;19;20142;-77
2023/05/01 05:14:37;;;;;;;7.05;4.90;;;8.40;99.90;9.20;93842.00;;;;7380305;19;20133;-78
2023/05/01 05:17:11;;;;;;;4.32;3.75;;;8.40;99.90;9.20;93846.00;;;;7379009;19;20164;-77
2023/05/01 05:19:38;;;;;;;4.50;3.53;;;8.50;99.90;9.30;93830.00;;;;7379595;19;20132;-80
2023/05/01 05:22:34;;;;;;;4.35;3.63;;;8.50;99.90;9.30;93823.00;;;;7377769;19;20141;-78
2023/05/01 05:25:08;;;;;;;5.72;4.10;;;8.60;99.90;9.20;93817.00;;;;7380438;19;20604;-79
2023/05/01 05:27:42;;;;;;;4.93;3.90;;;8.60;99.90;9.20;93806.00;;;;7382365;19;20129;-79
2023/05/01 05:30:10;;;;;;;5.35;3.90;;;8.60;99.90;9.30;93823.00;;;;7388155;19;20129;-80
2023/05/01 05:32:38;;;;;;;4.68;3.63;;;8.60;99.90;9.30;93840.00;;;;7389158;19;20472;-80
2023/05/01 05:35:11;;;;;;;9.02;4.20;;;8.60;99.90;9.40;93839.00;;;;7386359;19;20214;-79
2023/05/01 05:37:45;;;;;;;4.60;4.05;;;8.70;99.90;9.40;93827.00;;;;7387627;19;20619;-79
2023/05/01 05:40:19;;;;;;;4.28;3.75;;;8.70;99.90;9.50;93833.00;;;;7389224;19;20197;-79
2023/05/01 05:42:53;;;;;;;5.97;3.80;;;8.80;99.90;9.50;93831.00;;;;7390907;19;20133;-80
2023/05/01 05:45:20;;;;;;;4.75;4.07;;;8.90;99.90;9.50;93854.00;;;;7389061;19;20145;-79
2023/05/01 05:48:07;;;;;;;4.65;4.05;;;9.00;99.90;9.70;93841.00;;;;7389616;19;20475;-79
2023/05/01 05:50:41;;;;;;;5.57;4.47;;;9.10;99.90;9.80;93830.00;;;;7388429;19;20600;-77
2023/05/01 05:53:15;;;;;;;5.88;3.65;;;9.20;99.90;10.10;93820.00;;;;7387704;19;20485;-77
2023/05/01 05:55:44;;;;;;;5.13;3.90;;;9.30;79.30;10.10;93815.00;;;;7389874;19;20153;-78
2023/05/01 05:58:22;;;;;;;4.88;4.20;;;9.40;84.10;10.20;93835.00;;;;7394800;19;20147;-77
2023/05/01 06:00:56;;;;;;;6.60;4.25;;;9.40;99.90;10.30;93845.00;;;;7389995;19;20145;-77
2023/05/01 06:03:23;;;;;;;4.85;3.90;;;9.30;99.90;10.20;93846.00;;;;7389946;19;20152;-77
2023/05/01 06:05:59;;;;;;;5.30;4.70;;;9.30;99.90;10.20;93826.00;;;;7389088;19;20152;-77
2023/05/01 06:08:35;;;;;;;5.50;4.05;;;9.30;99.90;10.20;93840.00;;;;7391889;19;20584;-77
2023/05/01 06:11:09;;;;;;;9.63;4.03;;;9.30;99.90;10.30;93834.00;;;;7389763;19;20782;-77
2023/05/01 06:13:37;;;;;;;4.63;4.15;;;9.20;99.90;10.10;93854.00;;;;7386439;19;20146;-79
2023/05/01 06:16:14;;;;;;;6.95;4.75;;;9.20;99.90;10.10;93817.00;;;;7387372;19;20144;-79
2023/05/01 06:18:47;;;;;;;5.22;4.53;;;9.20;99.90;10.10;93842.00;;;;7386307;19;20120;-78
2023/05/01 06:21:21;;;;;;;5.13;4.60;;;9.10;99.90;9.80;93818.00;;;;7388484;19;20156;-78
2023/05/01 06:23:54;;;;;;;4.85;4.35;;;9.10;99.90;9.80;93838.00;;;;7387177;19;20129;-78
2023/05/01 06:26:28;;;;;;;6.15;4.55;;;9.10;99.90;9.90;93841.00;;;;7386805;19;20590;-78
2023/05/01 06:28:55;;;;;;;8.25;4.68;;;9.10;99.90;10.10;93838.00;;;;7385742;19;20121;-78
2023/05/01 06:31:29;;;;;;;5.20;4.68;;;9.10;99.90;10.10;93840.00;;;;7382688;19;20161;-78
2023/05/01 06:33:56;;;;;;;6.45;4.53;;;9.30;99.90;10.20;93826.00;;;;7380245;19;20163;-78
2023/05/01 06:36:23;;;;;;;8.00;5.15;;;9.30;99.90;10.50;93825.00;;;;7386793;19;20121;-78
2023/05/01 06:38:57;;;;;;;5.13;4.07;;;9.30;99.90;10.50;93849.00;;;;7378896;19;20151;-79
2023/05/01 06:41:33;;;;;;;7.88;4.57;;;9.40;99.90;10.40;93852.00;;;;7379497;19;20576;-79
2023/05/01 06:44:00;;;;;;;5.18;4.65;;;9.60;99.90;10.50;93846.00;;;;7375124;19;20148;-76
2023/05/01 06:46:34;;;;;;;7.00;4.75;;;9.60;99.90;10.30;93849.00;;;;7378637;19;20143;-79
2023/05/01 06:49:15;;;;;;;7.50;4.47;;;9.60;99.90;10.30;93848.00;;;;7379541;19;20672;-79
2023/05/01 06:51:50;;;;;;;5.20;4.20;;;9.60;99.90;10.10;93857.00;;;;7377881;19;20180;-77
2023/05/01 06:54:26;;;;;;;5.65;3.83;;;9.60;99.90;10.40;93858.00;;;;7380530;19;20124;-79
2023/05/01 06:56:53;;;;;;;7.45;4.47;;;9.60;99.90;10.50;93841.00;;;;7375468;19;20124;-79
2023/05/01 06:59:27;;;;;;;7.07;4.05;;;9.70;99.90;10.90;93813.00;;;;7372811;19;20129;-76
2023/05/01 07:01:54;;;;;;;4.57;4.13;;;9.80;99.90;11.00;93833.00;;;;7377284;19;20176;-77
2023/05/01 07:04:31;;;;;;;5.10;4.18;;;10.00;99.90;11.40;93842.00;;;;7378043;19;20616;-77
2023/05/01 07:07:00;;;;;;;5.60;3.88;;;10.20;99.90;11.50;93823.00;;;;7373090;19;20580;-77
2023/05/01 07:09:35;;;;;;;4.90;3.97;;;10.50;99.90;11.90;93854.00;;;;7365698;19;20152;-76
2023/05/01 07:12:09;;;;;;;4.90;4.18;;;10.70;87.70;11.70;93855.00;;;;7360998;19;20136;-77
2023/05/01 07:14:37;;;;;;;7.47;4.13;;;10.70;15.10;11.60;93830.00;;;;7366535;19;20164;-79
2023/05/01 07:17:11;;;;;;;4.35;3.95;;;10.70;14.80;11.60;93831.00;;;;7361520;19;20129;-77
2023/05/01 07:19:38;;;;;;;4.20;3.80;;;10.70;45.90;11.80;93852.00;;;;7366548;19;20208;-77
2023/05/01 07:22:12;;;;;;;4.43;3.63;;;10.80;72.20;12.10;93847.00;;;;7366855;19;20129;-77
2023/05/01 07:24:46;;;;;;;6.07;3.88;;;10.90;11.50;12.30;93835.00;;;;7381671;19;20129;-77
2023/05/01 07:27:20;;;;;;;6.55;3.75;;;11.00;10.50;12.80;93844.00;;;;7381136;19;20155;-77
2023/05/01 07:29:56;;;;;;;5.38;4.28;;;11.40;9.30;13.20;93842.00;;;;7382256;19;20486;-77
2023/05/01 07:32:30;;;;;;;4.85;3.70;;;11.70;14.40;13.10;93826.00;;;;7379394;19;20191;-77
2023/05/01 07:35:05;;;;;;;6.32;3.95;;;12.00;1.00;13.30;93836.00;;;;7379571;19;20153;-76
2023/05/01 07:37:32;;;;;;;4.70;3.80;;;12.10;1.00;13.50;93816.00;;;;7386485;19;20176;-77
2023/05/01 07:40:06;;;;;;;4.07;3.67;;;12.30;1.00;13.40;93816.00;;;;7377685;19;20153;-77
2023/05/01 07:42:33;;;;;;;6.65;4.03;;;12.40;1.00;13.50;93810.00;;;;7378450;19;20146;-77
2023/05/01 07:45:07;;;;;;;4.90;4.40;;;12.50;1.00;13.60;93837.00;;;;7373978;19;20125;-77
2023/05/01 07:47:41;;;;;;;4.97;3.88;;;12.60;1.00;13.60;93822.00;;;;7365829;19;20125;-76
2023/05/01 07:50:22;;;;;;;4.10;3.70;;;12.80;1.00;13.50;93838.00;;;;7364698;19;20160;-77
2023/05/01 07:52:49;;;;;;;4.43;3.85;;;12.80;1.00;13.70;93806.00;;;;7365446;19;20129;-76
2023/05/01 07:55:24;;;;;;;4.20;3.80;;;12.60;1.00;13.40;93838.00;;;;7362449;19;20129;-76
2023/05/01 07:57:58;;;;;;;4.10;3.70;;;12.70;1.00;13.90;93832.00;;;;7367377;19;20485;-76
2023/05/01 08:00:25;;;;;;;4.22;3.80;;;12.70;1.00;14.20;93825.00;;;;7363145;19;20150;-76
2023/05/01 08:02:59;;;;;;;4.18;3.63;;;13.10;1.00;14.20;93837.00;;;;7370007;19;20176;-76
2023/05/01 08:05:26;;;;;;;5.72;3.65;;;13.40;1.00;14.50;93829.00;;;;7366818;19;20564;-76
2023/05/01 08:08:00;;;;;;;6.35;3.60;;;13.70;1.00;14.30;93828.00;;;;7369471;19;20592;-77
2023/05/01 08:10:27;;;;;;;4.43;3.45;;;13.80;1.00;13.90;93847.00;;;;7370863;19;20121;-76
2023/05/01 08:13:01;;;;;;;3.90;3.50;;;13.90;1.00;14.30;93832.00;;;;7361743;19;20176;-77
2023/05/01 08:15:28;;;;;;;5.55;3.05;;;13.90;1.00;14.40;93827.00;;;;7370381;19;20129;-76
2023/05/01 08:18:02;;;;;;;5.13;3.33;;;13.90;1.00;14.30;93819.00;;;;7368431;19;20132;-76
2023/05/01 08:20:29;;;;;;;3.08;2.67;;;13.70;1.00;14.70;93821.00;;;;7360297;19;21483;-76
2023/05/01 08:23:03;;;;;;;4.32;3.20;;;13.70;1.00;14.60;93829.00;;;;7355706;19;20156;-76
2023/05/01 08:25:31;;;;;;;6.53;2.88;;;13.90;1.00;14.90;93806.00;;;;7363330;19;20146;-78
2023/05/01 08:28:04;;;;;;;2.95;2.65;;;14.20;1.00;15.20;93822.00;;;;7364293;19;20128;-76
2023/05/01 08:30:33;;;;;;;4.72;2.83;;;14.50;1.00;15.00;93816.00;;;;7363395;19;20191;-76
2023/05/01 08:33:07;;;;;;;3.65;2.60;;;14.70;1.00;16.30;93805.00;;;;7364622;19;20817;-75
2023/05/01 08:35:41;;;;;;;3.85;2.95;;;15.10;1.00;16.60;93758.00;;;;7360769;19;20152;-76
2023/05/01 08:38:15;;;;;;;3.20;2.90;;;15.70;1.00;18.40;93790.00;;;;7365841;19;20176;-76
2023/05/01 08:40:53;;;;;;;3.35;3.05;;;16.10;1.00;17.90;93789.00;;;;7364689;19;20503;-76
2023/05/01 08:43:20;;;;;;;3.05;2.80;;;17.10;1.00;19.10;93797.00;;;;7359132;19;20139;-76
2023/05/01 08:45:59;;;;;;;3.60;2.65;;;17.20;1.00;18.70;93793.00;;;;7350807;19;20184;-75
2023/05/01 08:48:28;;;;;;;3.47;3.10;;;17.40;1.00;19.70;93809.00;;;;7346572;19;20198;-77
2023/05/01 08:51:11;;;;;;;5.13;3.13;;;17.40;1.00;17.50;93815.00;;;;7357803;19;20184;-76
2023/05/01 08:53:50;;;;;;;4.53;2.90;;;17.40;1.00;17.90;93819.00;;;;7354460;19;20592;-75
2023/05/01 08:56:25;;;;;;;4.85;2.80;;;16.80;1.00;17.40;93819.00;;;;7352578;19;20174;-75
2023/05/01 08:59:03;;;;;;;4.30;2.55;;;16.90;1.00;18.30;93818.00;;;;7365645;19;20133;-74
2023/05/01 09:01:32;;;;;;;2.70;2.50;;;17.00;1.00;18.10;93803.00;;;;7389613;19;20608;-74
2023/05/01 09:04:08;;;;;;;7.57;3.10;;;17.00;1.00;16.50;93834.00;;;;7397015;19;20531;-74
2023/05/01 09:06:35;;;;;;;3.70;3.00;;;17.10;1.00;16.90;93815.00;;;;7398411;19;20148;-75
2023/05/01 09:09:09;;;;;;;5.53;3.08;;;16.90;1.00;16.10;93833.00;;;;7393971;19;20137;-73
2023/05/01 09:11:37;;;;;;;3.17;2.70;;;16.10;1.00;16.40;93832.00;;;;7398008;19;20148;-72
2023/05/01 09:14:10;;;;;;;2.65;2.45;;;15.80;1.00;16.20;93816.00;;;;7397334;19;20605;-72
2023/05/01 09:16:44;;;;;;;3.13;2.80;;;15.70;1.00;15.80;93839.00;;;;7394175;19;20411;-72
2023/05/01 09:19:11;;;;;;;4.22;2.90;;;15.90;1.00;16.40;93840.00;;;;7390019;19;20766;-72
2023/05/01 09:21:45;;;;;;;3.38;2.60;;;16.10;1.00;16.60;93830.00;;;;7401807;19;20128;-72
2023/05/01 09:24:12;;;;;;;3.15;2.45;;;16.30;1.00;15.40;93835.00;;;;7401716;19;20192;-72
2023/05/01 09:26:40;;;;;;;2.90;2.60;;;16.20;1.00;15.50;93830.00;;;;7398878;19;20485;-72
2023/05/01 09:29:36;;;;;;;2.78;2.55;;;16.00;1.00;15.40;93852.00;;;;7400694;19;20120;-72
2023/05/01 09:32:23;;;;;;;3.92;2.88;;;15.70;1.00;15.60;93843.00;;;;7402269;19;20429;-72
2023/05/01 09:34:52;;;;;;;3.25;2.95;;;15.50;1.00;16.10;93823.00;;;;7399729;19;20549;-72
2023/05/01 09:37:33;;;;;;;3.00;2.70;;;15.30;1.00;16.20;93839.00;;;;7401440;19;20226;-72
2023/05/01 09:40:13;;;;;;;4.03;3.00;;;15.50;1.00;16.60;93848.00;;;;7400616;19;20125;-73
2023/05/01 09:42:52;;;;;;;6.00;3.28;;;15.80;1.00;15.40;93840.00;;;;7400543;19;20150;-72
2023/05/01 09:45:19;;;;;;;4.22;3.05;;;15.90;1.00;15.90;93841.00;;;;7393683;19;20144;-73
2023/05/01 09:48:09;;;;;;;3.55;3.22;;;16.00;1.00;16.40;93858.00;;;;7401449;19;20588;-72
2023/05/01 09:50:44;;;;;;;3.45;2.92;;;16.00;1.00;16.40;93841.00;;;;7392460;19;20176;-73
2023/05/01 09:53:18;;;;;;;3.70;3.17;;;15.80;1.00;15.30;93836.00;;;;7401040;19;20129;-72
2023/05/01 09:56:00;;;;;;;2.88;2.67;;;15.70;1.00;15.80;93847.00;;;;7398126;19;20120;-73
2023/05/01 09:58:34;;;;;;;4.38;3.50;;;15.80;1.00;15.90;93861.00;;;;7397789;19;20610;-73
2023/05/01 10:01:01;;;;;;;3.10;2.80;;;15.60;1.00;15.40;93850.00;;;;7396318;19;20580;-74
2023/05/01 10:03:36;;;;;;;4.70;3.05;;;15.60;1.00;16.20;93842.00;;;;7396181;19;20175;-74
2023/05/01 10:06:09;;;;;;;4.65;2.95;;;15.50;1.00;15.90;93858.00;;;;7394358;19;20163;-73
2023/05/01 10:08:53;;;;;;;3.50;3.20;;;15.10;1.00;15.60;93850.00;;;;7392001;19;20153;-74
2023/05/01 10:11:27;;;;;;;3.38;3.08;;;15.10;1.00;15.10;93865.00;;;;7398036;19;20139;-75
2023/05/01 10:14:07;;;;;;;3.40;3.03;;;15.00;1.00;14.70;93842.00;;;;7395712;19;20167;-74
2023/05/01 10:16:41;;;;;;;2.97;2.72;;;15.30;1.00;15.50;93852.00;;;;7395797;19;20139;-74
2023/05/01 10:19:23;;;;;;;5.35;2.95;;;15.50;1.00;15.90;93869.00;;;;7397191;19;20426;-74
2023/05/01 10:21:58;;;;;;;3.67;2.60;;;15.70;1.00;16.00;93845.00;;;;7400452;19;20132;-74
2023/05/01 10:24:39;;;;;;;3.08;2.78;;;15.80;1.00;15.70;93865.00;;;;7400689;19;20608;-74
2023/05/01 10:27:12;;;;;;;3.10;2.60;;;15.90;1.00;15.60;93862.00;;;;7402885;19;20600;-74
2023/05/01 10:29:48;;;;;;;2.83;2.63;;;15.90;1.00;16.20;93838.00;;;;7399846;19;20129;-74
2023/05/01 10:32:15;;;;;;;3.20;2.75;;;15.90;1.00;15.40;93861.00;;;;7399009;19;20152;-75
2023/05/01 10:35:05;;;;;;;3.75;2.58;;;15.90;1.00;15.40;93866.00;;;;7402587;19;20121;-75
2023/05/01 10:38:03;;;;;;;2.83;2.60;;;15.80;1.00;15.80;93873.00;;;;7400104;19;20516;-74
2023/05/01 10:40:42;;;;;;;2.92;2.67;;;15.50;1.00;15.90;93870.00;;;;7398041;19;20137;-74
2023/05/01 10:43:28;;;;;;;3.67;2.53;;;15.60;1.00;16.30;93870.00;;;;7401463;19;20139;-74
2023/05/01 10:46:20;;;;;;;4.97;2.95;;;15.80;1.00;16.80;93869.00;;;;7394116;19;20163;-74
2023/05/01 10:48:50;;;;;;;4.18;2.90;;;16.10;1.00;16.70;93866.00;;;;7399916;19;20612;-74
2023/05/01 10:51:31;;;;;;;4.53;2.70;;;16.40;1.00;17.30;93853.00;;;;7400052;19;20149;-74
2023/05/01 10:54:13;;;;;;;3.42;3.13;;;16.80;1.00;16.90;93847.00;;;;7399772;19;20160;-74
2023/05/01 10:56:47;;;;;;;3.50;3.20;;;17.20;1.00;18.20;93845.00;;;;7399472;19;20156;-74
2023/05/01 10:59:21;;;;;;;3.20;2.90;;;17.60;1.00;18.50;93820.00;;;;7400479;19;20124;-74
2023/05/01 11:01:51;;;;;;;5.32;3.33;;;17.80;1.00;18.50;93857.00;;;;7395951;19;20129;-74
2023/05/01 11:04:24;;;;;;;3.60;3.30;;;18.00;1.00;18.90;93851.00;;;;7397189;19;20204;-74
2023/05/01 11:07:00;;;;;;;3.50;3.20;;;18.00;1.00;17.80;93863.00;;;;7396231;19;20125;-75
2023/05/01 11:09:53;;;;;;;3.63;3.33;;;18.10;1.00;17.40;93867.00;;;;7395972;19;20608;-74
2023/05/01 11:12:50;;;;;;;3.28;2.97;;;18.00;1.00;17.00;93869.00;;;;7398815;19;20149;-74
2023/05/01 11:15:34;;;;;;;6.13;3.25;;;17.60;1.00;16.30;93857.00;;;;7397119;19;20133;-74
2023/05/01 11:18:03;;;;;;;4.03;3.63;;;17.00;1.00;16.10;93835.00;;;;7398545;19;20164;-74
2023/05/01 11:20:37;;;;;;;4.38;3.97;;;16.20;1.00;15.50;93873.00;;;;7397373;19;20626;-74
2023/05/01 11:23:05;;;;;;;4.10;3.63;;;15.80;1.00;15.40;93874.00;;;;7400583;19;20149;-74
2023/05/01 11:25:38;;;;;;;4.45;3.40;;;15.50;1.00;15.10;93867.00;;;;7398984;19;20200;-74
2023/05/01 11:28:08;;;;;;;3.75;3.13;;;15.30;1.00;15.10;93854.00;;;;7401182;19;20204;-74
2023/05/01 11:30:45;;;;;;;4.20;3.80;;;15.00;1.00;15.40;93860.00;;;;7395609;19;20615;-73
2023/05/01 11:33:13;;;;;;;4.13;3.58;;;14.90;1.00;15.20;93855.00;;;;7396722;19;20132;-74
2023/05/01 11:35:59;;;;;;;4.88;3.80;;;14.90;1.00;14.90;93861.00;;;;7394351;19;20486;-74
2023/05/01 11:38:26;;;;;;;4.60;3.78;;;14.80;1.00;14.50;93873.00;;;;7397040;19;20148;-75
2023/05/01 11:41:03;;;;;;;7.47;6.68;;;14.50;1.00;14.30;93841.00;;;;7396807;19;20563;-74
2023/05/01 11:43:30;;;;;;;9.25;4.80;;;14.30;1.00;14.50;93872.00;;;;7397904;19;20136;-74